sensor_id;sensor_type;location;lat;lon;timestamp;P1;durP1;ratioP1;P2;durP2;ratioP2
29380;SDS011;16364;52.490;13.326;2023-03-01T00:02:03;17.90;;;9.00;;
29380;SDS011;16364;52.490;13.326;2023-03-01T00:04:29;13.70;;;9.00;;
29380;SDS011;16364;52.490;13.326;2023-03-01T00:06:55;15.10;;;9.57;;
29380;SDS011;16364;52.490;13.326;2023-03-01T00:09:20;15.53;;;9.43;;
29380;SDS011;16364;52.490;13.326;2023-03-01T00:11:45;21.10;;;10.50;;
29380;SDS011;16364;52.490;13.326;2023-03-01T00:14:11;20.13;;;9.73;;
29380;SDS011;16364;52.490;13.326;2023-03-01T00:16:37;12.03;;;8.97;;
29380;SDS011;16364;52.490;13.326;2023-03-01T00:19:13;14.50;;;9.97;;
29380;SDS011;16364;52.490;13.326;2023-03-01T00:21:39;11.23;;;9.67;;
29380;SDS011;16364;52.490;13.326;2023-03-01T00:24:05;15.93;;;10.93;;
29380;SDS011;16364;52.490;13.326;2023-03-01T00:26:30;15.90;;;10.70;;
29380;SDS011;16364;52.490;13.326;2023-03-01T00:28:56;15.57;;;10.80;;
29380;SDS011;16364;52.490;13.326;2023-03-01T00:31:22;15.63;;;10.00;;
29380;SDS011;16364;52.490;13.326;2023-03-01T00:33:48;15.70;;;10.17;;
29380;SDS011;16364;52.490;13.326;2023-03-01T00:36:14;19.30;;;11.30;;
29380;SDS011;16364;52.490;13.326;2023-03-01T00:38:41;21.83;;;11.57;;
29380;SDS011;16364;52.490;13.326;2023-03-01T00:41:07;17.53;;;10.40;;
29380;SDS011;16364;52.490;13.326;2023-03-01T00:43:33;16.43;;;12.07;;
29380;SDS011;16364;52.490;13.326;2023-03-01T00:46:05;16.03;;;10.60;;
29380;SDS011;16364;52.490;13.326;2023-03-01T00:48:31;20.73;;;11.43;;
29380;SDS011;16364;52.490;13.326;2023-03-01T00:51:09;18.83;;;12.30;;
29380;SDS011;16364;52.490;13.326;2023-03-01T00:53:35;18.50;;;11.77;;
29380;SDS011;16364;52.490;13.326;2023-03-01T00:56:00;15.27;;;10.80;;
29380;SDS011;16364;52.490;13.326;2023-03-01T00:58:25;19.77;;;11.60;;
29380;SDS011;16364;52.490;13.326;2023-03-01T01:00:51;19.27;;;11.70;;
29380;SDS011;16364;52.490;13.326;2023-03-01T01:03:17;18.43;;;11.97;;
29380;SDS011;16364;52.490;13.326;2023-03-01T01:05:43;15.50;;;11.70;;
29380;SDS011;16364;52.490;13.326;2023-03-01T01:08:08;16.93;;;11.53;;
29380;SDS011;16364;52.490;13.326;2023-03-01T01:10:34;16.40;;;11.90;;
29380;SDS011;16364;52.490;13.326;2023-03-01T01:12:59;18.33;;;12.03;;
29380;SDS011;16364;52.490;13.326;2023-03-01T01:15:24;20.63;;;12.80;;
29380;SDS011;16364;52.490;13.326;2023-03-01T01:17:49;20.40;;;11.83;;
29380;SDS011;16364;52.490;13.326;2023-03-01T01:20:14;18.97;;;11.93;;
29380;SDS011;16364;52.490;13.326;2023-03-01T01:22:40;13.93;;;11.53;;
29380;SDS011;16364;52.490;13.326;2023-03-01T01:25:05;20.83;;;12.30;;
29380;SDS011;16364;52.490;13.326;2023-03-01T01:27:30;20.73;;;12.27;;
29380;SDS011;16364;52.490;13.326;2023-03-01T01:29:56;19.17;;;12.70;;
29380;SDS011;16364;52.490;13.326;2023-03-01T01:32:22;14.63;;;11.07;;
29380;SDS011;16364;52.490;13.326;2023-03-01T01:34:47;18.33;;;11.17;;
29380;SDS011;16364;52.490;13.326;2023-03-01T01:37:12;21.40;;;13.00;;
29380;SDS011;16364;52.490;13.326;2023-03-01T01:39:38;21.07;;;13.80;;
29380;SDS011;16364;52.490;13.326;2023-03-01T01:42:03;23.67;;;13.40;;
29380;SDS011;16364;52.490;13.326;2023-03-01T01:44:29;20.30;;;12.30;;
29380;SDS011;16364;52.490;13.326;2023-03-01T01:47:01;15.70;;;12.00;;
29380;SDS011;16364;52.490;13.326;2023-03-01T01:49:29;22.67;;;12.00;;
29380;SDS011;16364;52.490;13.326;2023-03-01T01:51:58;17.87;;;11.70;;
29380;SDS011;16364;52.490;13.326;2023-03-01T01:54:28;19.80;;;12.40;;
29380;SDS011;16364;52.490;13.326;2023-03-01T01:56:57;21.43;;;11.23;;
29380;SDS011;16364;52.490;13.326;2023-03-01T01:59:24;16.10;;;11.80;;
29380;SDS011;16364;52.490;13.326;2023-03-01T02:01:53;21.10;;;11.83;;
29380;SDS011;16364;52.490;13.326;2023-03-01T02:04:18;18.30;;;11.30;;
29380;SDS011;16364;52.490;13.326;2023-03-01T02:06:48;14.90;;;12.00;;
29380;SDS011;16364;52.490;13.326;2023-03-01T02:09:16;16.50;;;10.50;;
29380;SDS011;16364;52.490;13.326;2023-03-01T02:11:43;18.47;;;12.30;;
29380;SDS011;16364;52.490;13.326;2023-03-01T02:14:09;17.97;;;11.50;;
29380;SDS011;16364;52.490;13.326;2023-03-01T02:16:34;17.93;;;11.27;;
29380;SDS011;16364;52.490;13.326;2023-03-01T02:18:59;19.03;;;11.00;;
29380;SDS011;16364;52.490;13.326;2023-03-01T02:26:53;16.43;;;10.93;;
29380;SDS011;16364;52.490;13.326;2023-03-01T02:29:20;16.57;;;12.60;;
29380;SDS011;16364;52.490;13.326;2023-03-01T02:31:45;14.80;;;10.67;;
29380;SDS011;16364;52.490;13.326;2023-03-01T02:34:18;18.10;;;11.23;;
29380;SDS011;16364;52.490;13.326;2023-03-01T02:36:45;18.23;;;11.80;;
29380;SDS011;16364;52.490;13.326;2023-03-01T02:39:13;16.17;;;11.57;;
29380;SDS011;16364;52.490;13.326;2023-03-01T02:41:39;15.87;;;12.57;;
29380;SDS011;16364;52.490;13.326;2023-03-01T02:44:06;17.53;;;11.40;;
29380;SDS011;16364;52.490;13.326;2023-03-01T02:46:31;17.33;;;11.20;;
29380;SDS011;16364;52.490;13.326;2023-03-01T02:48:57;16.40;;;11.40;;
29380;SDS011;16364;52.490;13.326;2023-03-01T02:56:34;17.03;;;10.90;;
29380;SDS011;16364;52.490;13.326;2023-03-01T02:59:00;16.83;;;10.93;;
29380;SDS011;16364;52.490;13.326;2023-03-01T03:01:26;16.63;;;11.53;;
29380;SDS011;16364;52.490;13.326;2023-03-01T03:04:01;18.63;;;12.40;;
29380;SDS011;16364;52.490;13.326;2023-03-01T03:06:26;16.80;;;11.03;;
29380;SDS011;16364;52.490;13.326;2023-03-01T03:08:51;18.13;;;11.80;;
29380;SDS011;16364;52.490;13.326;2023-03-01T03:11:16;15.50;;;11.23;;
29380;SDS011;16364;52.490;13.326;2023-03-01T03:13:42;17.60;;;10.80;;
29380;SDS011;16364;52.490;13.326;2023-03-01T03:16:13;18.60;;;10.40;;
29380;SDS011;16364;52.490;13.326;2023-03-01T03:18:38;13.80;;;11.70;;
29380;SDS011;16364;52.490;13.326;2023-03-01T03:21:03;14.63;;;10.93;;
29380;SDS011;16364;52.490;13.326;2023-03-01T03:23:32;14.97;;;10.07;;
29380;SDS011;16364;52.490;13.326;2023-03-01T03:25:58;21.07;;;11.37;;
29380;SDS011;16364;52.490;13.326;2023-03-01T03:28:23;15.97;;;12.20;;
29380;SDS011;16364;52.490;13.326;2023-03-01T03:30:49;18.17;;;12.00;;
29380;SDS011;16364;52.490;13.326;2023-03-01T03:33:14;12.47;;;10.40;;
29380;SDS011;16364;52.490;13.326;2023-03-01T03:35:44;23.63;;;11.60;;
29380;SDS011;16364;52.490;13.326;2023-03-01T03:38:10;15.10;;;10.27;;
29380;SDS011;16364;52.490;13.326;2023-03-01T03:40:41;14.60;;;9.87;;
29380;SDS011;16364;52.490;13.326;2023-03-01T03:43:08;16.83;;;9.87;;
29380;SDS011;16364;52.490;13.326;2023-03-01T03:45:34;15.10;;;10.67;;
29380;SDS011;16364;52.490;13.326;2023-03-01T03:48:00;16.70;;;10.63;;
29380;SDS011;16364;52.490;13.326;2023-03-01T03:50:26;16.90;;;10.17;;
29380;SDS011;16364;52.490;13.326;2023-03-01T03:52:51;16.60;;;9.67;;
29380;SDS011;16364;52.490;13.326;2023-03-01T03:55:16;15.73;;;10.63;;
29380;SDS011;16364;52.490;13.326;2023-03-01T03:57:44;17.03;;;9.70;;
29380;SDS011;16364;52.490;13.326;2023-03-01T04:00:11;14.20;;;10.70;;
29380;SDS011;16364;52.490;13.326;2023-03-01T04:02:46;15.93;;;10.20;;
29380;SDS011;16364;52.490;13.326;2023-03-01T04:05:12;12.40;;;10.67;;
29380;SDS011;16364;52.490;13.326;2023-03-01T04:10:14;13.53;;;10.70;;
29380;SDS011;16364;52.490;13.326;2023-03-01T04:12:40;12.93;;;8.73;;
29380;SDS011;16364;52.490;13.326;2023-03-01T04:15:06;14.13;;;10.13;;
29380;SDS011;16364;52.490;13.326;2023-03-01T04:17:44;17.97;;;10.60;;
29380;SDS011;16364;52.490;13.326;2023-03-01T04:20:14;15.50;;;10.80;;
29380;SDS011;16364;52.490;13.326;2023-03-01T04:22:42;19.33;;;11.87;;
29380;SDS011;16364;52.490;13.326;2023-03-01T04:25:08;17.63;;;11.10;;
29380;SDS011;16364;52.490;13.326;2023-03-01T04:27:34;20.23;;;12.20;;
29380;SDS011;16364;52.490;13.326;2023-03-01T04:29:59;14.27;;;10.47;;
29380;SDS011;16364;52.490;13.326;2023-03-01T04:32:24;15.10;;;10.47;;
29380;SDS011;16364;52.490;13.326;2023-03-01T04:34:50;13.57;;;9.90;;
29380;SDS011;16364;52.490;13.326;2023-03-01T04:37:15;13.47;;;10.30;;
29380;SDS011;16364;52.490;13.326;2023-03-01T04:39:41;17.27;;;11.20;;
29380;SDS011;16364;52.490;13.326;2023-03-01T04:42:14;13.57;;;9.37;;
29380;SDS011;16364;52.490;13.326;2023-03-01T04:44:39;15.50;;;10.00;;
29380;SDS011;16364;52.490;13.326;2023-03-01T04:47:05;15.03;;;10.10;;
29380;SDS011;16364;52.490;13.326;2023-03-01T04:49:30;17.77;;;10.20;;
29380;SDS011;16364;52.490;13.326;2023-03-01T04:51:56;16.57;;;10.40;;
29380;SDS011;16364;52.490;13.326;2023-03-01T04:54:23;16.60;;;10.80;;
29380;SDS011;16364;52.490;13.326;2023-03-01T04:56:49;15.43;;;9.93;;
29380;SDS011;16364;52.490;13.326;2023-03-01T04:59:14;16.37;;;9.80;;
29380;SDS011;16364;52.490;13.326;2023-03-01T05:01:40;15.93;;;10.80;;
29380;SDS011;16364;52.490;13.326;2023-03-01T05:04:07;16.47;;;10.03;;
29380;SDS011;16364;52.490;13.326;2023-03-01T05:06:38;15.80;;;10.23;;
29380;SDS011;16364;52.490;13.326;2023-03-01T05:09:03;15.33;;;10.73;;
29380;SDS011;16364;52.490;13.326;2023-03-01T05:11:28;16.53;;;9.63;;
29380;SDS011;16364;52.490;13.326;2023-03-01T05:13:58;13.30;;;9.70;;
29380;SDS011;16364;52.490;13.326;2023-03-01T05:16:24;15.43;;;9.63;;
29380;SDS011;16364;52.490;13.326;2023-03-01T05:18:49;14.53;;;9.47;;
29380;SDS011;16364;52.490;13.326;2023-03-01T05:21:16;19.63;;;11.43;;
29380;SDS011;16364;52.490;13.326;2023-03-01T05:23:41;15.60;;;10.37;;
29380;SDS011;16364;52.490;13.326;2023-03-01T05:26:07;15.40;;;10.10;;
29380;SDS011;16364;52.490;13.326;2023-03-01T05:28:32;15.63;;;10.03;;
29380;SDS011;16364;52.490;13.326;2023-03-01T05:30:58;14.23;;;10.50;;
29380;SDS011;16364;52.490;13.326;2023-03-01T05:33:24;13.80;;;10.90;;
29380;SDS011;16364;52.490;13.326;2023-03-01T05:35:50;12.63;;;9.70;;
29380;SDS011;16364;52.490;13.326;2023-03-01T05:38:16;13.53;;;10.93;;
29380;SDS011;16364;52.490;13.326;2023-03-01T05:40:42;13.93;;;9.50;;
29380;SDS011;16364;52.490;13.326;2023-03-01T05:43:08;17.63;;;10.93;;
29380;SDS011;16364;52.490;13.326;2023-03-01T05:45:35;17.07;;;10.23;;
29380;SDS011;16364;52.490;13.326;2023-03-01T05:48:01;14.17;;;10.03;;
29380;SDS011;16364;52.490;13.326;2023-03-01T05:50:27;15.83;;;10.23;;
29380;SDS011;16364;52.490;13.326;2023-03-01T05:52:58;12.27;;;10.03;;
29380;SDS011;16364;52.490;13.326;2023-03-01T05:55:24;16.27;;;11.17;;
29380;SDS011;16364;52.490;13.326;2023-03-01T05:57:49;13.47;;;11.10;;
29380;SDS011;16364;52.490;13.326;2023-03-01T06:00:18;17.03;;;10.80;;
29380;SDS011;16364;52.490;13.326;2023-03-01T06:02:44;17.93;;;11.03;;
29380;SDS011;16364;52.490;13.326;2023-03-01T06:05:10;15.27;;;9.87;;
29380;SDS011;16364;52.490;13.326;2023-03-01T06:07:37;17.07;;;10.93;;
29380;SDS011;16364;52.490;13.326;2023-03-01T06:10:03;19.53;;;11.60;;
29380;SDS011;16364;52.490;13.326;2023-03-01T06:12:32;17.03;;;11.93;;
29380;SDS011;16364;52.490;13.326;2023-03-01T06:14:58;17.47;;;11.93;;
29380;SDS011;16364;52.490;13.326;2023-03-01T06:17:23;21.33;;;10.47;;
29380;SDS011;16364;52.490;13.326;2023-03-01T06:19:49;20.07;;;14.37;;
29380;SDS011;16364;52.490;13.326;2023-03-01T06:22:15;22.43;;;12.60;;
29380;SDS011;16364;52.490;13.326;2023-03-01T06:24:40;23.80;;;13.90;;
29380;SDS011;16364;52.490;13.326;2023-03-01T06:27:06;19.37;;;12.53;;
29380;SDS011;16364;52.490;13.326;2023-03-01T06:29:33;20.20;;;12.93;;
29380;SDS011;16364;52.490;13.326;2023-03-01T06:31:58;21.43;;;13.73;;
29380;SDS011;16364;52.490;13.326;2023-03-01T06:34:23;21.63;;;12.80;;
29380;SDS011;16364;52.490;13.326;2023-03-01T06:36:48;20.37;;;13.00;;
29380;SDS011;16364;52.490;13.326;2023-03-01T06:39:14;18.87;;;13.03;;
29380;SDS011;16364;52.490;13.326;2023-03-01T06:41:39;18.90;;;12.50;;
29380;SDS011;16364;52.490;13.326;2023-03-01T06:44:04;12.77;;;10.80;;
29380;SDS011;16364;52.490;13.326;2023-03-01T06:46:30;14.70;;;11.63;;
29380;SDS011;16364;52.490;13.326;2023-03-01T06:48:55;20.40;;;12.53;;
29380;SDS011;16364;52.490;13.326;2023-03-01T06:51:21;18.97;;;12.10;;
29380;SDS011;16364;52.490;13.326;2023-03-01T06:53:46;18.33;;;11.17;;
29380;SDS011;16364;52.490;13.326;2023-03-01T06:56:11;29.50;;;15.23;;
29380;SDS011;16364;52.490;13.326;2023-03-01T06:58:36;23.03;;;13.40;;
29380;SDS011;16364;52.490;13.326;2023-03-01T07:01:05;22.97;;;12.87;;
29380;SDS011;16364;52.490;13.326;2023-03-01T07:03:30;18.90;;;12.07;;
29380;SDS011;16364;52.490;13.326;2023-03-01T07:05:56;28.47;;;13.93;;
29380;SDS011;16364;52.490;13.326;2023-03-01T07:08:22;32.53;;;14.10;;
29380;SDS011;16364;52.490;13.326;2023-03-01T07:10:47;22.87;;;13.47;;
29380;SDS011;16364;52.490;13.326;2023-03-01T07:13:12;20.63;;;12.50;;
29380;SDS011;16364;52.490;13.326;2023-03-01T07:15:39;16.93;;;11.70;;
29380;SDS011;16364;52.490;13.326;2023-03-01T07:18:05;29.77;;;13.13;;
29380;SDS011;16364;52.490;13.326;2023-03-01T07:20:30;34.43;;;15.77;;
29380;SDS011;16364;52.490;13.326;2023-03-01T07:22:55;97.77;;;25.57;;
29380;SDS011;16364;52.490;13.326;2023-03-01T07:25:23;105.60;;;27.90;;
29380;SDS011;16364;52.490;13.326;2023-03-01T07:27:49;59.40;;;23.30;;
29380;SDS011;16364;52.490;13.326;2023-03-01T07:30:15;38.33;;;16.70;;
29380;SDS011;16364;52.490;13.326;2023-03-01T07:32:40;26.77;;;15.97;;
29380;SDS011;16364;52.490;13.326;2023-03-01T07:35:05;29.30;;;14.23;;
29380;SDS011;16364;52.490;13.326;2023-03-01T07:37:31;21.23;;;13.27;;
29380;SDS011;16364;52.490;13.326;2023-03-01T07:39:56;23.83;;;12.67;;
29380;SDS011;16364;52.490;13.326;2023-03-01T07:42:22;26.70;;;14.97;;
29380;SDS011;16364;52.490;13.326;2023-03-01T07:44:47;20.53;;;13.53;;
29380;SDS011;16364;52.490;13.326;2023-03-01T07:47:13;28.90;;;15.87;;
29380;SDS011;16364;52.490;13.326;2023-03-01T07:49:38;28.30;;;15.17;;
29380;SDS011;16364;52.490;13.326;2023-03-01T07:52:03;21.33;;;14.03;;
29380;SDS011;16364;52.490;13.326;2023-03-01T07:54:28;18.37;;;12.03;;
29380;SDS011;16364;52.490;13.326;2023-03-01T07:56:54;15.53;;;11.40;;
29380;SDS011;16364;52.490;13.326;2023-03-01T07:59:19;16.60;;;11.07;;
29380;SDS011;16364;52.490;13.326;2023-03-01T08:01:45;14.87;;;10.20;;
29380;SDS011;16364;52.490;13.326;2023-03-01T08:04:10;14.73;;;10.37;;
29380;SDS011;16364;52.490;13.326;2023-03-01T08:06:35;15.20;;;9.93;;
29380;SDS011;16364;52.490;13.326;2023-03-01T08:09:01;11.40;;;8.80;;
29380;SDS011;16364;52.490;13.326;2023-03-01T08:11:26;14.00;;;9.57;;
29380;SDS011;16364;52.490;13.326;2023-03-01T08:13:53;11.63;;;8.10;;
29380;SDS011;16364;52.490;13.326;2023-03-01T08:16:18;12.87;;;8.20;;
29380;SDS011;16364;52.490;13.326;2023-03-01T08:18:44;16.33;;;8.50;;
29380;SDS011;16364;52.490;13.326;2023-03-01T08:21:13;10.17;;;8.03;;
29380;SDS011;16364;52.490;13.326;2023-03-01T08:23:39;11.37;;;9.30;;
29380;SDS011;16364;52.490;13.326;2023-03-01T08:28:29;9.30;;;7.40;;
29380;SDS011;16364;52.490;13.326;2023-03-01T08:30:54;9.20;;;6.20;;
29380;SDS011;16364;52.490;13.326;2023-03-01T08:33:20;7.50;;;6.40;;
29380;SDS011;16364;52.490;13.326;2023-03-01T08:35:45;7.57;;;5.63;;
29380;SDS011;16364;52.490;13.326;2023-03-01T08:38:10;6.70;;;5.23;;
29380;SDS011;16364;52.490;13.326;2023-03-01T08:40:35;9.80;;;5.43;;
29380;SDS011;16364;52.490;13.326;2023-03-01T08:43:00;8.83;;;5.07;;
29380;SDS011;16364;52.490;13.326;2023-03-01T08:45:26;8.50;;;5.27;;
29380;SDS011;16364;52.490;13.326;2023-03-01T08:47:54;8.80;;;4.37;;
29380;SDS011;16364;52.490;13.326;2023-03-01T08:50:19;6.40;;;5.13;;
29380;SDS011;16364;52.490;13.326;2023-03-01T08:52:44;7.10;;;4.33;;
29380;SDS011;16364;52.490;13.326;2023-03-01T08:55:10;7.57;;;5.33;;
29380;SDS011;16364;52.490;13.326;2023-03-01T08:57:35;8.87;;;4.57;;
29380;SDS011;16364;52.490;13.326;2023-03-01T09:00:00;5.10;;;4.60;;
29380;SDS011;16364;52.490;13.326;2023-03-01T09:02:25;8.37;;;4.53;;
29380;SDS011;16364;52.490;13.326;2023-03-01T09:04:51;5.83;;;4.63;;
29380;SDS011;16364;52.490;13.326;2023-03-01T09:07:16;5.87;;;4.37;;
29380;SDS011;16364;52.490;13.326;2023-03-01T09:09:41;5.33;;;4.30;;
29380;SDS011;16364;52.490;13.326;2023-03-01T09:12:06;6.07;;;4.40;;
29380;SDS011;16364;52.490;13.326;2023-03-01T09:14:32;4.70;;;4.13;;
29380;SDS011;16364;52.490;13.326;2023-03-01T09:16:57;4.50;;;3.90;;
29380;SDS011;16364;52.490;13.326;2023-03-01T09:19:22;4.90;;;4.27;;
29380;SDS011;16364;52.490;13.326;2023-03-01T09:21:47;4.83;;;4.00;;
29380;SDS011;16364;52.490;13.326;2023-03-01T09:24:21;5.53;;;4.30;;
29380;SDS011;16364;52.490;13.326;2023-03-01T09:26:46;4.80;;;3.10;;
29380;SDS011;16364;52.490;13.326;2023-03-01T09:29:12;7.27;;;3.57;;
29380;SDS011;16364;52.490;13.326;2023-03-01T09:31:38;6.83;;;4.00;;
29380;SDS011;16364;52.490;13.326;2023-03-01T09:34:03;6.20;;;4.10;;
29380;SDS011;16364;52.490;13.326;2023-03-01T09:36:28;5.50;;;4.03;;
29380;SDS011;16364;52.490;13.326;2023-03-01T09:38:54;5.37;;;3.70;;
29380;SDS011;16364;52.490;13.326;2023-03-01T09:44:08;7.40;;;3.73;;
29380;SDS011;16364;52.490;13.326;2023-03-01T09:46:37;6.40;;;3.43;;
29380;SDS011;16364;52.490;13.326;2023-03-01T09:49:07;4.97;;;2.60;;
29380;SDS011;16364;52.490;13.326;2023-03-01T09:51:35;8.80;;;3.40;;
29380;SDS011;16364;52.490;13.326;2023-03-01T09:54:02;5.97;;;3.77;;
29380;SDS011;16364;52.490;13.326;2023-03-01T09:56:37;5.67;;;3.60;;
29380;SDS011;16364;52.490;13.326;2023-03-01T10:01:54;5.80;;;3.50;;
29380;SDS011;16364;52.490;13.326;2023-03-01T10:04:55;6.33;;;3.77;;
29380;SDS011;16364;52.490;13.326;2023-03-01T10:09:39;5.27;;;3.63;;
29380;SDS011;16364;52.490;13.326;2023-03-01T10:12:08;5.07;;;4.30;;
29380;SDS011;16364;52.490;13.326;2023-03-01T10:14:35;4.13;;;3.20;;
29380;SDS011;16364;52.490;13.326;2023-03-01T10:17:36;3.77;;;3.47;;
29380;SDS011;16364;52.490;13.326;2023-03-01T10:19:53;5.20;;;3.40;;
29380;SDS011;16364;52.490;13.326;2023-03-01T10:22:21;3.40;;;3.10;;
29380;SDS011;16364;52.490;13.326;2023-03-01T10:24:47;4.33;;;3.20;;
29380;SDS011;16364;52.490;13.326;2023-03-01T10:29:54;9.37;;;3.23;;
29380;SDS011;16364;52.490;13.326;2023-03-01T10:32:20;3.47;;;2.70;;
29380;SDS011;16364;52.490;13.326;2023-03-01T10:34:46;3.70;;;3.17;;
29380;SDS011;16364;52.490;13.326;2023-03-01T10:37:16;7.80;;;3.07;;
29380;SDS011;16364;52.490;13.326;2023-03-01T10:42:31;6.07;;;4.27;;
29380;SDS011;16364;52.490;13.326;2023-03-01T10:44:56;5.50;;;4.00;;
29380;SDS011;16364;52.490;13.326;2023-03-01T10:47:23;4.30;;;3.90;;
29380;SDS011;16364;52.490;13.326;2023-03-01T10:49:57;4.87;;;4.47;;
29380;SDS011;16364;52.490;13.326;2023-03-01T10:52:24;6.00;;;4.00;;
29380;SDS011;16364;52.490;13.326;2023-03-01T10:54:53;5.40;;;4.00;;
29380;SDS011;16364;52.490;13.326;2023-03-01T11:02:40;6.60;;;4.13;;
29380;SDS011;16364;52.490;13.326;2023-03-01T11:07:54;6.60;;;4.20;;
29380;SDS011;16364;52.490;13.326;2023-03-01T11:10:26;6.63;;;5.03;;
29380;SDS011;16364;52.490;13.326;2023-03-01T11:12:52;5.97;;;5.17;;
29380;SDS011;16364;52.490;13.326;2023-03-01T11:15:22;8.20;;;5.40;;
29380;SDS011;16364;52.490;13.326;2023-03-01T11:17:49;7.90;;;5.00;;
29380;SDS011;16364;52.490;13.326;2023-03-01T11:20:25;9.00;;;5.67;;
29380;SDS011;16364;52.490;13.326;2023-03-01T11:22:59;12.80;;;5.27;;
29380;SDS011;16364;52.490;13.326;2023-03-01T11:25:26;7.60;;;4.70;;
29380;SDS011;16364;52.490;13.326;2023-03-01T11:27:54;8.80;;;5.57;;
29380;SDS011;16364;52.490;13.326;2023-03-01T11:33:01;6.53;;;4.40;;
29380;SDS011;16364;52.490;13.326;2023-03-01T11:35:28;7.40;;;5.17;;
29380;SDS011;16364;52.490;13.326;2023-03-01T11:40:43;10.53;;;5.60;;
29380;SDS011;16364;52.490;13.326;2023-03-01T11:43:21;7.70;;;4.03;;
29380;SDS011;16364;52.490;13.326;2023-03-01T11:50:51;3.63;;;2.60;;
29380;SDS011;16364;52.490;13.326;2023-03-01T11:55:54;4.20;;;3.00;;
29380;SDS011;16364;52.490;13.326;2023-03-01T12:03:28;3.33;;;3.03;;
29380;SDS011;16364;52.490;13.326;2023-03-01T12:08:37;3.40;;;2.53;;
29380;SDS011;16364;52.490;13.326;2023-03-01T12:11:19;9.07;;;2.63;;
29380;SDS011;16364;52.490;13.326;2023-03-01T12:24:21;3.50;;;2.27;;
29380;SDS011;16364;52.490;13.326;2023-03-01T12:29:27;4.93;;;2.70;;
29380;SDS011;16364;52.490;13.326;2023-03-01T12:32:09;4.67;;;3.03;;
29380;SDS011;16364;52.490;13.326;2023-03-01T12:34:49;5.30;;;3.00;;
29380;SDS011;16364;52.490;13.326;2023-03-01T12:44:56;7.10;;;3.50;;
29380;SDS011;16364;52.490;13.326;2023-03-01T12:47:37;4.20;;;2.40;;
29380;SDS011;16364;52.490;13.326;2023-03-01T12:50:12;3.57;;;2.80;;
29380;SDS011;16364;52.490;13.326;2023-03-01T12:52:41;4.17;;;2.80;;
29380;SDS011;16364;52.490;13.326;2023-03-01T12:55:18;2.43;;;2.23;;
29380;SDS011;16364;52.490;13.326;2023-03-01T12:58:00;4.47;;;2.83;;
29380;SDS011;16364;52.490;13.326;2023-03-01T13:00:35;4.37;;;2.50;;
29380;SDS011;16364;52.490;13.326;2023-03-01T13:03:09;4.97;;;2.50;;
29380;SDS011;16364;52.490;13.326;2023-03-01T13:08:18;2.70;;;2.10;;
29380;SDS011;16364;52.490;13.326;2023-03-01T13:15:39;3.77;;;3.20;;
29380;SDS011;16364;52.490;13.326;2023-03-01T13:23:23;7.00;;;3.13;;
29380;SDS011;16364;52.490;13.326;2023-03-01T13:26:06;7.90;;;3.10;;
29380;SDS011;16364;52.490;13.326;2023-03-01T13:31:02;3.87;;;2.87;;
29380;SDS011;16364;52.490;13.326;2023-03-01T13:35:53;32.90;;;15.07;;
29380;SDS011;16364;52.490;13.326;2023-03-01T13:41:03;22.27;;;11.57;;
29380;SDS011;16364;52.490;13.326;2023-03-01T13:43:31;20.57;;;9.97;;
29380;SDS011;16364;52.490;13.326;2023-03-01T13:45:57;46.43;;;22.87;;
29380;SDS011;16364;52.490;13.326;2023-03-01T13:50:48;5.97;;;3.27;;
29380;SDS011;16364;52.490;13.326;2023-03-01T13:53:17;3.40;;;2.80;;
29380;SDS011;16364;52.490;13.326;2023-03-01T13:55:44;4.13;;;2.40;;
29380;SDS011;16364;52.490;13.326;2023-03-01T13:58:23;4.60;;;2.40;;
29380;SDS011;16364;52.490;13.326;2023-03-01T14:00:54;3.83;;;2.47;;
29380;SDS011;16364;52.490;13.326;2023-03-01T14:03:20;5.80;;;2.90;;
29380;SDS011;16364;52.490;13.326;2023-03-01T14:08:44;3.77;;;2.50;;
29380;SDS011;16364;52.490;13.326;2023-03-01T14:19:16;3.93;;;2.13;;
29380;SDS011;16364;52.490;13.326;2023-03-01T14:21:42;3.40;;;2.47;;
29380;SDS011;16364;52.490;13.326;2023-03-01T14:24:18;5.90;;;2.20;;
29380;SDS011;16364;52.490;13.326;2023-03-01T14:26:43;2.67;;;2.30;;
29380;SDS011;16364;52.490;13.326;2023-03-01T14:29:23;4.80;;;2.20;;
29380;SDS011;16364;52.490;13.326;2023-03-01T14:31:48;4.30;;;2.80;;
29380;SDS011;16364;52.490;13.326;2023-03-01T14:34:24;5.93;;;3.73;;
29380;SDS011;16364;52.490;13.326;2023-03-01T14:36:49;4.47;;;3.10;;
29380;SDS011;16364;52.490;13.326;2023-03-01T14:39:19;6.03;;;2.13;;
29380;SDS011;16364;52.490;13.326;2023-03-01T14:41:44;3.07;;;1.70;;
29380;SDS011;16364;52.490;13.326;2023-03-01T14:44:19;3.90;;;1.90;;
29380;SDS011;16364;52.490;13.326;2023-03-01T14:46:51;2.67;;;1.60;;
29380;SDS011;16364;52.490;13.326;2023-03-01T14:49:20;2.37;;;1.63;;
29380;SDS011;16364;52.490;13.326;2023-03-01T14:52:02;5.23;;;2.80;;
29380;SDS011;16364;52.490;13.326;2023-03-01T14:54:37;3.37;;;1.70;;
29380;SDS011;16364;52.490;13.326;2023-03-01T14:57:05;4.03;;;2.97;;
29380;SDS011;16364;52.490;13.326;2023-03-01T14:59:32;2.17;;;1.97;;
29380;SDS011;16364;52.490;13.326;2023-03-01T15:01:58;3.47;;;1.70;;
29380;SDS011;16364;52.490;13.326;2023-03-01T15:04:24;5.07;;;1.77;;
29380;SDS011;16364;52.490;13.326;2023-03-01T15:06:55;2.77;;;1.60;;
29380;SDS011;16364;52.490;13.326;2023-03-01T15:09:29;2.00;;;1.80;;
29380;SDS011;16364;52.490;13.326;2023-03-01T15:11:57;3.70;;;1.97;;
29380;SDS011;16364;52.490;13.326;2023-03-01T15:14:26;3.23;;;1.70;;
29380;SDS011;16364;52.490;13.326;2023-03-01T15:16:52;3.07;;;1.83;;
29380;SDS011;16364;52.490;13.326;2023-03-01T15:19:17;2.20;;;2.00;;
29380;SDS011;16364;52.490;13.326;2023-03-01T15:21:43;1.90;;;1.67;;
29380;SDS011;16364;52.490;13.326;2023-03-01T15:26:45;3.10;;;2.33;;
29380;SDS011;16364;52.490;13.326;2023-03-01T15:29:18;3.07;;;1.83;;
29380;SDS011;16364;52.490;13.326;2023-03-01T15:31:52;1.60;;;1.40;;
29380;SDS011;16364;52.490;13.326;2023-03-01T15:34:28;4.67;;;1.83;;
29380;SDS011;16364;52.490;13.326;2023-03-01T15:36:54;3.30;;;1.90;;
29380;SDS011;16364;52.490;13.326;2023-03-01T15:42:45;3.70;;;2.03;;
29380;SDS011;16364;52.490;13.326;2023-03-01T15:45:06;1.90;;;1.60;;
29380;SDS011;16364;52.490;13.326;2023-03-01T15:47:32;2.50;;;2.00;;
29380;SDS011;16364;52.490;13.326;2023-03-01T15:49:59;4.60;;;1.70;;
29380;SDS011;16364;52.490;13.326;2023-03-01T15:52:35;2.80;;;1.70;;
29380;SDS011;16364;52.490;13.326;2023-03-01T15:55:05;3.40;;;2.30;;
29380;SDS011;16364;52.490;13.326;2023-03-01T15:57:31;5.30;;;2.20;;
29380;SDS011;16364;52.490;13.326;2023-03-01T15:59:56;2.73;;;2.00;;
29380;SDS011;16364;52.490;13.326;2023-03-01T16:02:22;3.67;;;1.57;;
29380;SDS011;16364;52.490;13.326;2023-03-01T16:04:48;4.43;;;2.00;;
29380;SDS011;16364;52.490;13.326;2023-03-01T16:07:16;2.77;;;1.77;;
29380;SDS011;16364;52.490;13.326;2023-03-01T16:09:41;2.90;;;2.37;;
29380;SDS011;16364;52.490;13.326;2023-03-01T16:12:10;2.10;;;1.67;;
29380;SDS011;16364;52.490;13.326;2023-03-01T16:14:37;2.43;;;1.90;;
29380;SDS011;16364;52.490;13.326;2023-03-01T16:17:03;2.70;;;1.80;;
29380;SDS011;16364;52.490;13.326;2023-03-01T16:19:28;2.87;;;2.00;;
29380;SDS011;16364;52.490;13.326;2023-03-01T16:21:53;2.27;;;1.70;;